Time;durP1;ratioP1;P1;durP2;ratioP2;P2;SDS_P1;SDS_P2;PMS_P1;PMS_P2;Temp;Humidity;BMP_temperature;BMP_pressure;BME280_temperature;BME280_humidity;BME280_pressure;Samples;Min_cycle;Max_cycle;Signal;HPM_P1;HPM_P2
2023/07/09 00:00:17;;;;;;;;;;;24.70;58.10;;;;;;5128724;28;19934;-58
2023/07/09 00:02:43;;;;;;;;;;;24.70;58.00;;;;;;5130117;27;19920;-58
2023/07/09 00:05:11;;;;;;;;;;;24.70;58.00;;;;;;5128929;28;19946;-58
2023/07/09 00:07:37;;;;;;;;;;;24.70;58.00;;;;;;5163491;27;19926;-58
2023/07/09 00:10:02;;;;;;;;;;;24.70;58.10;;;;;;5128772;28;20327;-58
2023/07/09 00:12:28;;;;;;;;;;;24.70;58.10;;;;;;5129605;28;20390;-58
2023/07/09 00:14:54;;;;;;;;;;;24.70;58.00;;;;;;5128179;28;19923;-58
2023/07/09 00:17:25;;;;;;;;;;;24.70;58.00;;;;;;5128289;28;19927;-58
2023/07/09 00:19:51;;;;;;;;;;;24.70;58.00;;;;;;5163375;27;20323;-58
2023/07/09 00:22:17;;;;;;;;;;;24.70;58.00;;;;;;5128222;28;20011;-58
2023/07/09 00:24:44;;;;;;;;;;;24.70;58.00;;;;;;5129542;28;20272;-58
2023/07/09 00:27:10;;;;;;;;;;;24.70;58.00;;;;;;5118144;27;19994;-58
2023/07/09 00:29:36;;;;;;;;;;;24.70;58.00;;;;;;5114414;28;19926;-59
2023/07/09 00:32:01;;;;;;;;;;;24.70;58.00;;;;;;5114747;28;19923;-58
2023/07/09 00:34:26;;;;;;;;;;;24.70;58.00;;;;;;5115667;28;19924;-58
2023/07/09 00:36:53;;;;;;;;;;;24.70;58.00;;;;;;5115618;28;19919;-58
2023/07/09 00:39:23;;;;;;;;;;;24.70;58.00;;;;;;5114249;28;19976;-58
2023/07/09 00:41:49;;;;;;;;;;;24.70;58.00;;;;;;5147968;27;19923;-59
2023/07/09 00:44:31;;;;;;;;;;;24.70;58.10;;;;;;5113931;28;19919;-58
2023/07/09 00:49:46;;;;;;;;;;;24.70;58.00;;;;;;5130774;27;20419;-58
2023/07/09 00:52:24;;;;;;;;;;;24.70;58.00;;;;;;5129775;28;20302;-58
2023/07/09 00:54:51;;;;;;;;;;;24.70;58.00;;;;;;5129394;28;19927;-58
2023/07/09 00:57:18;;;;;;;;;;;24.70;58.00;;;;;;5163543;27;19975;-58
2023/07/09 00:59:49;;;;;;;;;;;24.70;58.10;;;;;;5130392;27;20026;-58
2023/07/09 01:02:15;;;;;;;;;;;24.70;58.10;;;;;;5129581;28;19919;-58
2023/07/09 01:04:41;;;;;;;;;;;24.70;58.10;;;;;;5129505;28;19930;-58
2023/07/09 01:07:07;;;;;;;;;;;24.60;58.00;;;;;;5129187;28;19920;-58
2023/07/09 01:09:35;;;;;;;;;;;24.60;58.00;;;;;;5130337;27;19978;-58
2023/07/09 01:12:04;;;;;;;;;;;24.60;58.00;;;;;;5129415;28;19927;-58
2023/07/09 01:14:31;;;;;;;;;;;24.60;58.10;;;;;;5129021;28;19927;-58
2023/07/09 01:17:00;;;;;;;;;;;24.60;58.00;;;;;;5130433;27;19919;-58
2023/07/09 01:19:28;;;;;;;;;;;24.60;58.00;;;;;;5128921;28;19927;-59
2023/07/09 01:21:54;;;;;;;;;;;24.60;58.00;;;;;;5128780;28;20056;-58
2023/07/09 01:24:40;;;;;;;;;;;24.60;58.00;;;;;;5129071;28;19934;-58
2023/07/09 01:27:07;;;;;;;;;;;24.60;58.10;;;;;;5128573;28;19920;-58
2023/07/09 01:29:34;;;;;;;;;;;24.60;58.10;;;;;;5128659;28;19924;-58
2023/07/09 01:31:59;;;;;;;;;;;24.60;58.10;;;;;;5129092;28;20309;-58
2023/07/09 01:34:25;;;;;;;;;;;24.60;58.10;;;;;;5129858;28;20255;-58
2023/07/09 01:36:51;;;;;;;;;;;24.60;58.10;;;;;;5128593;28;19934;-58
2023/07/09 01:39:17;;;;;;;;;;;24.60;58.10;;;;;;5128570;28;19919;-58
2023/07/09 01:41:42;;;;;;;;;;;24.50;58.10;;;;;;5129788;27;19984;-58
2023/07/09 01:44:08;;;;;;;;;;;24.50;58.10;;;;;;5129802;28;19971;-58
2023/07/09 01:46:34;;;;;;;;;;;24.50;58.10;;;;;;5128583;28;20451;-58
2023/07/09 01:48:59;;;;;;;;;;;24.50;58.10;;;;;;5128096;28;20425;-58
2023/07/09 01:51:28;;;;;;;;;;;24.50;58.20;;;;;;5128331;28;19967;-58
2023/07/09 01:53:53;;;;;;;;;;;24.50;58.20;;;;;;5128290;28;20175;-58
2023/07/09 01:56:19;;;;;;;;;;;24.50;58.20;;;;;;5128474;28;19920;-58
2023/07/09 01:58:44;;;;;;;;;;;24.50;58.20;;;;;;5127987;28;19920;-58
2023/07/09 02:01:10;;;;;;;;;;;24.50;58.20;;;;;;5113842;28;19923;-58
2023/07/09 02:03:35;;;;;;;;;;;24.50;58.20;;;;;;5114793;28;19945;-59
2023/07/09 02:06:08;;;;;;;;;;;24.50;58.20;;;;;;5114603;28;20394;-58
2023/07/09 02:08:35;;;;;;;;;;;24.50;58.20;;;;;;5114595;28;19924;-58
2023/07/09 02:11:01;;;;;;;;;;;24.50;58.30;;;;;;5114583;28;19990;-58
2023/07/09 02:13:26;;;;;;;;;;;24.50;58.20;;;;;;5114239;28;19924;-58
2023/07/09 02:15:51;;;;;;;;;;;24.50;58.30;;;;;;5115582;28;19942;-58
2023/07/09 02:18:17;;;;;;;;;;;24.40;58.20;;;;;;5115521;28;19920;-58
2023/07/09 02:20:45;;;;;;;;;;;24.40;58.30;;;;;;5115227;28;20302;-58
2023/07/09 02:23:10;;;;;;;;;;;24.40;58.30;;;;;;5114352;28;19927;-58
2023/07/09 02:25:35;;;;;;;;;;;24.40;58.30;;;;;;5114235;28;20298;-58
2023/07/09 02:28:01;;;;;;;;;;;24.40;58.30;;;;;;5114073;28;20030;-57
2023/07/09 02:30:26;;;;;;;;;;;24.40;58.30;;;;;;5113905;28;20382;-58
2023/07/09 02:32:54;;;;;;;;;;;24.40;58.30;;;;;;5115132;28;20004;-58
2023/07/09 02:35:19;;;;;;;;;;;24.40;58.30;;;;;;5114150;28;20010;-58
2023/07/09 02:37:45;;;;;;;;;;;24.30;58.30;;;;;;5113731;28;20010;-58
2023/07/09 02:40:11;;;;;;;;;;;24.30;58.30;;;;;;5114107;28;19978;-58
2023/07/09 02:42:37;;;;;;;;;;;24.30;58.20;;;;;;5113737;28;19965;-58
2023/07/09 02:45:03;;;;;;;;;;;24.30;58.30;;;;;;5115009;28;19927;-58
2023/07/09 02:47:28;;;;;;;;;;;24.30;58.30;;;;;;5113530;28;19923;-58
2023/07/09 02:49:54;;;;;;;;;;;24.30;58.30;;;;;;5113619;28;20286;-58
2023/07/09 02:52:19;;;;;;;;;;;24.30;58.30;;;;;;5114572;28;19946;-58
2023/07/09 02:54:45;;;;;;;;;;;24.30;58.30;;;;;;5114017;28;19923;-58
2023/07/09 02:57:10;;;;;;;;;;;24.30;59.00;;;;;;5113627;28;19933;-58
2023/07/09 02:59:36;;;;;;;;;;;24.30;58.30;;;;;;5113326;28;19926;-58
2023/07/09 03:02:02;;;;;;;;;;;24.30;58.30;;;;;;5114529;28;19923;-58
2023/07/09 03:04:27;;;;;;;;;;;24.30;58.30;;;;;;5113582;28;19920;-58
2023/07/09 03:06:53;;;;;;;;;;;24.30;58.40;;;;;;5113192;28;20390;-58
2023/07/09 03:09:19;;;;;;;;;;;24.20;58.30;;;;;;5113058;28;19976;-58
2023/07/09 03:11:44;;;;;;;;;;;24.30;58.40;;;;;;5146602;27;20378;-58
2023/07/09 03:14:10;;;;;;;;;;;24.20;58.30;;;;;;5113264;28;19968;-58
2023/07/09 03:16:35;;;;;;;;;;;24.20;58.30;;;;;;5114406;28;19919;-59
2023/07/09 03:19:03;;;;;;;;;;;24.20;58.40;;;;;;5114266;28;20334;-58
2023/07/09 03:21:28;;;;;;;;;;;24.10;58.30;;;;;;5114190;28;19942;-58
2023/07/09 03:23:54;;;;;;;;;;;24.20;58.40;;;;;;5112773;28;20438;-58
2023/07/09 03:26:20;;;;;;;;;;;24.20;58.40;;;;;;5113130;28;19920;-58
2023/07/09 03:28:46;;;;;;;;;;;24.10;58.30;;;;;;5112623;28;19930;-58
2023/07/09 03:31:11;;;;;;;;;;;24.20;58.40;;;;;;5113023;28;19950;-58
2023/07/09 03:33:37;;;;;;;;;;;24.10;58.30;;;;;;5113870;28;19920;-58
2023/07/09 03:36:04;;;;;;;;;;;24.10;58.30;;;;;;5112940;28;19928;-58
2023/07/09 03:38:30;;;;;;;;;;;24.10;58.40;;;;;;5112476;28;19920;-58
2023/07/09 03:40:55;;;;;;;;;;;24.10;58.40;;;;;;5095536;28;19920;-58
2023/07/09 03:43:21;;;;;;;;;;;24.10;58.40;;;;;;5113893;28;19976;-58
2023/07/09 03:45:47;;;;;;;;;;;24.10;58.40;;;;;;5112570;28;19923;-58
2023/07/09 03:48:13;;;;;;;;;;;24.10;58.40;;;;;;5146545;27;20018;-58
2023/07/09 03:50:39;;;;;;;;;;;24.10;58.40;;;;;;5146691;27;19946;-58
2023/07/09 03:53:05;;;;;;;;;;;24.10;58.40;;;;;;5113415;28;20510;-58
2023/07/09 03:55:31;;;;;;;;;;;24.10;58.40;;;;;;5112488;28;19920;-59
2023/07/09 03:57:56;;;;;;;;;;;24.00;58.30;;;;;;5112481;28;19920;-58
2023/07/09 04:00:22;;;;;;;;;;;24.10;58.40;;;;;;5113457;28;20006;-58
2023/07/09 04:02:48;;;;;;;;;;;24.10;59.20;;;;;;5113543;28;19919;-58
2023/07/09 04:05:14;;;;;;;;;;;24.10;58.50;;;;;;5113381;28;20094;-58
2023/07/09 04:07:39;;;;;;;;;;;24.10;58.50;;;;;;5112265;28;20335;-58
2023/07/09 04:10:05;;;;;;;;;;;24.00;58.40;;;;;;5112178;28;19920;-58
2023/07/09 04:12:31;;;;;;;;;;;24.00;58.40;;;;;;5111153;28;19923;-58
2023/07/09 04:14:57;;;;;;;;;;;24.00;58.40;;;;;;5112025;28;20278;-58
2023/07/09 04:17:23;;;;;;;;;;;24.00;58.40;;;;;;5113295;28;19945;-58
2023/07/09 04:19:49;;;;;;;;;;;24.00;58.40;;;;;;5113141;28;19924;-58
2023/07/09 04:22:15;;;;;;;;;;;24.00;58.40;;;;;;5112869;28;19920;-58
2023/07/09 04:24:40;;;;;;;;;;;24.00;58.40;;;;;;5112041;28;19923;-58
2023/07/09 04:27:06;;;;;;;;;;;24.00;58.40;;;;;;5112015;28;19971;-57
2023/07/09 04:29:35;;;;;;;;;;;24.00;58.40;;;;;;5111716;28;20235;-58
2023/07/09 04:32:02;;;;;;;;;;;24.00;58.40;;;;;;5111651;28;19924;-58
2023/07/09 04:34:27;;;;;;;;;;;24.00;58.40;;;;;;5111957;28;19935;-58
2023/07/09 04:36:53;;;;;;;;;;;24.00;58.50;;;;;;5112995;28;19920;-58
2023/07/09 04:39:18;;;;;;;;;;;23.90;58.40;;;;;;5112788;28;19920;-58
2023/07/09 04:41:44;;;;;;;;;;;23.90;59.20;;;;;;5111774;28;19963;-58
2023/07/09 04:44:09;;;;;;;;;;;24.00;58.50;;;;;;5111595;28;19920;-58
2023/07/09 04:46:35;;;;;;;;;;;23.90;58.40;;;;;;5111444;28;19927;-59
2023/07/09 04:49:00;;;;;;;;;;;23.90;58.40;;;;;;5111298;28;20416;-58
2023/07/09 04:51:26;;;;;;;;;;;23.90;58.40;;;;;;5111553;28;20007;-58
2023/07/09 04:53:52;;;;;;;;;;;23.90;58.40;;;;;;5111550;28;19971;-58
2023/07/09 04:56:17;;;;;;;;;;;23.90;58.40;;;;;;5109125;28;19946;-58
2023/07/09 04:58:43;;;;;;;;;;;23.90;58.40;;;;;;5110166;28;19920;-58
2023/07/09 05:01:09;;;;;;;;;;;23.90;58.40;;;;;;5110350;28;19924;-58
2023/07/09 05:03:34;;;;;;;;;;;23.90;58.40;;;;;;5111395;28;19920;-58
2023/07/09 05:06:00;;;;;;;;;;;23.90;58.40;;;;;;5111402;28;19926;-58
2023/07/09 05:08:25;;;;;;;;;;;23.90;58.40;;;;;;5111365;28;20015;-58
2023/07/09 05:10:52;;;;;;;;;;;23.90;58.40;;;;;;5112557;28;19977;-58
2023/07/09 05:13:18;;;;;;;;;;;23.90;58.40;;;;;;5111631;28;20096;-58
2023/07/09 05:15:45;;;;;;;;;;;23.90;58.40;;;;;;5112550;28;20533;-58
2023/07/09 05:18:11;;;;;;;;;;;23.90;58.40;;;;;;5111455;28;19945;-58
2023/07/09 05:20:37;;;;;;;;;;;23.90;58.40;;;;;;5111234;28;19999;-58
2023/07/09 05:23:03;;;;;;;;;;;23.90;58.40;;;;;;5111453;28;20060;-59
2023/07/09 05:25:29;;;;;;;;;;;23.90;58.40;;;;;;5112443;28;19920;-58
2023/07/09 05:27:54;;;;;;;;;;;23.90;58.40;;;;;;5111237;28;19949;-58
2023/07/09 05:30:20;;;;;;;;;;;23.90;58.50;;;;;;5112373;28;19920;-58
2023/07/09 05:32:46;;;;;;;;;;;23.90;58.40;;;;;;5112402;28;19931;-57
2023/07/09 05:35:11;;;;;;;;;;;23.90;58.50;;;;;;5114317;28;19931;-58
2023/07/09 05:37:37;;;;;;;;;;;23.90;58.40;;;;;;5114910;28;19926;-58
2023/07/09 05:40:05;;;;;;;;;;;23.90;58.40;;;;;;5149608;27;19926;-58
2023/07/09 05:42:30;;;;;;;;;;;23.90;58.50;;;;;;5114758;28;20172;-58
2023/07/09 05:44:56;;;;;;;;;;;23.90;58.50;;;;;;5115178;28;19920;-58
2023/07/09 05:47:21;;;;;;;;;;;23.90;58.50;;;;;;5114513;28;19965;-58
2023/07/09 05:49:49;;;;;;;;;;;23.90;58.50;;;;;;5116052;28;19931;-58
2023/07/09 05:52:15;;;;;;;;;;;23.90;58.50;;;;;;5114592;28;19919;-58
2023/07/09 05:54:40;;;;;;;;;;;23.90;58.50;;;;;;5114602;28;20029;-58
2023/07/09 05:57:06;;;;;;;;;;;23.90;58.50;;;;;;5115783;28;19920;-58
2023/07/09 05:59:31;;;;;;;;;;;23.90;58.50;;;;;;5114449;28;19926;-58
2023/07/09 06:01:57;;;;;;;;;;;23.90;58.40;;;;;;5114906;28;20014;-58
2023/07/09 06:04:22;;;;;;;;;;;23.90;58.50;;;;;;5114376;28;19920;-58
2023/07/09 06:06:48;;;;;;;;;;;23.90;58.50;;;;;;5115794;28;19988;-58
2023/07/09 06:09:15;;;;;;;;;;;23.90;58.50;;;;;;5114272;28;19920;-58
2023/07/09 06:11:40;;;;;;;;;;;23.90;58.50;;;;;;5114635;28;19923;-58
2023/07/09 06:14:06;;;;;;;;;;;23.90;58.50;;;;;;5115454;28;20375;-58
2023/07/09 06:16:31;;;;;;;;;;;23.90;58.50;;;;;;5114572;28;20292;-58
2023/07/09 06:18:57;;;;;;;;;;;23.90;58.50;;;;;;5114303;28;19993;-58
2023/07/09 06:21:22;;;;;;;;;;;23.90;58.40;;;;;;5114142;28;19927;-58
2023/07/09 06:23:48;;;;;;;;;;;23.90;58.50;;;;;;5115303;28;20271;-58
2023/07/09 06:26:13;;;;;;;;;;;23.90;58.50;;;;;;5114426;28;19919;-58
2023/07/09 06:28:39;;;;;;;;;;;23.90;58.50;;;;;;5113958;28;19919;-58
2023/07/09 06:31:04;;;;;;;;;;;23.90;58.50;;;;;;5115167;28;20022;-58
2023/07/09 06:33:30;;;;;;;;;;;23.90;58.60;;;;;;5115175;28;20403;-58
2023/07/09 06:35:57;;;;;;;;;;;23.90;58.50;;;;;;5115176;28;20214;-58
2023/07/09 06:38:22;;;;;;;;;;;24.00;58.60;;;;;;5113819;28;19919;-58
2023/07/09 06:40:48;;;;;;;;;;;23.90;58.60;;;;;;5115013;28;19927;-58
2023/07/09 06:43:13;;;;;;;;;;;23.90;59.30;;;;;;5113668;28;19970;-58
2023/07/09 06:45:47;;;;;;;;;;;23.90;58.60;;;;;;5113757;28;19920;-58
2023/07/09 06:48:12;;;;;;;;;;;23.90;58.60;;;;;;5113354;28;19924;-58
2023/07/09 06:50:38;;;;;;;;;;;23.90;58.60;;;;;;5113828;28;19920;-58
2023/07/09 06:53:03;;;;;;;;;;;23.90;58.60;;;;;;5113478;28;19920;-58
2023/07/09 06:55:29;;;;;;;;;;;23.90;58.60;;;;;;5113272;28;20035;-58
2023/07/09 06:57:55;;;;;;;;;;;23.90;58.60;;;;;;5114625;28;19927;-59
2023/07/09 07:00:20;;;;;;;;;;;23.90;58.60;;;;;;5147695;27;20072;-58
2023/07/09 07:02:46;;;;;;;;;;;23.90;58.60;;;;;;5114681;28;19920;-58
2023/07/09 07:05:11;;;;;;;;;;;23.90;58.60;;;;;;5114627;28;19991;-58
2023/07/09 07:07:37;;;;;;;;;;;23.90;58.60;;;;;;5114501;28;20015;-58
2023/07/09 07:10:03;;;;;;;;;;;23.90;58.60;;;;;;5113502;28;19919;-58
2023/07/09 07:12:29;;;;;;;;;;;23.90;58.70;;;;;;5114359;27;19919;-58
2023/07/09 07:14:55;;;;;;;;;;;23.90;58.60;;;;;;5147771;27;19946;-58
2023/07/09 07:17:21;;;;;;;;;;;23.90;58.60;;;;;;5114219;28;19920;-58
2023/07/09 07:19:46;;;;;;;;;;;23.90;58.60;;;;;;5113291;28;19920;-58
2023/07/09 07:22:12;;;;;;;;;;;23.90;58.70;;;;;;5113148;28;19920;-58
2023/07/09 07:24:37;;;;;;;;;;;23.90;58.70;;;;;;5112907;28;20386;-58
2023/07/09 07:27:03;;;;;;;;;;;23.90;58.70;;;;;;5113965;28;19926;-58
2023/07/09 07:29:29;;;;;;;;;;;23.90;58.70;;;;;;5113956;28;20011;-58
2023/07/09 07:31:54;;;;;;;;;;;23.90;58.70;;;;;;5112434;28;19927;-58
2023/07/09 07:34:20;;;;;;;;;;;23.90;58.70;;;;;;5147137;27;20019;-58
2023/07/09 07:36:45;;;;;;;;;;;23.80;58.70;;;;;;5112597;28;20321;-58
2023/07/09 07:39:11;;;;;;;;;;;23.90;58.70;;;;;;5112868;28;19924;-58
2023/07/09 07:41:36;;;;;;;;;;;23.90;58.70;;;;;;5112722;28;20413;-59
2023/07/09 07:44:02;;;;;;;;;;;23.90;58.70;;;;;;5112504;28;19926;-58
2023/07/09 07:46:29;;;;;;;;;;;23.90;58.70;;;;;;5113614;28;19920;-58
2023/07/09 07:48:54;;;;;;;;;;;23.90;58.70;;;;;;5111978;28;19923;-58
2023/07/09 07:51:22;;;;;;;;;;;23.90;58.70;;;;;;5112265;28;19942;-58
2023/07/09 07:53:49;;;;;;;;;;;23.90;58.70;;;;;;5112241;28;19927;-58
2023/07/09 07:56:14;;;;;;;;;;;23.90;58.80;;;;;;5112491;28;20362;-58
2023/07/09 07:58:40;;;;;;;;;;;23.90;58.70;;;;;;5111801;28;19964;-58
2023/07/09 08:01:05;;;;;;;;;;;23.90;58.70;;;;;;5113328;28;19955;-58
2023/07/09 08:03:31;;;;;;;;;;;23.90;58.80;;;;;;5111986;28;19924;-58
2023/07/09 08:05:57;;;;;;;;;;;23.90;58.80;;;;;;5112311;28;19981;-58
2023/07/09 08:08:22;;;;;;;;;;;23.90;58.80;;;;;;5111728;28;20443;-58
2023/07/09 08:10:49;;;;;;;;;;;23.90;58.80;;;;;;5112451;28;19942;-58
2023/07/09 08:13:15;;;;;;;;;;;23.90;58.80;;;;;;5111676;28;19927;-58
2023/07/09 08:15:40;;;;;;;;;;;23.90;58.80;;;;;;5112974;28;19924;-58
2023/07/09 08:18:06;;;;;;;;;;;23.90;58.80;;;;;;5111812;28;20382;-58
2023/07/09 08:20:33;;;;;;;;;;;23.90;58.80;;;;;;5111888;28;20006;-58
2023/07/09 08:22:58;;;;;;;;;;;23.90;58.80;;;;;;5113057;27;19919;-58
2023/07/09 08:25:24;;;;;;;;;;;23.90;58.80;;;;;;5112942;28;19974;-58
2023/07/09 08:27:52;;;;;;;;;;;23.90;58.80;;;;;;5111635;28;19924;-58
2023/07/09 08:30:18;;;;;;;;;;;23.90;58.80;;;;;;5112994;28;20291;-58
2023/07/09 08:32:43;;;;;;;;;;;23.90;58.80;;;;;;5111550;28;19920;-58
2023/07/09 08:35:11;;;;;;;;;;;23.90;58.80;;;;;;5111599;28;20003;-58
2023/07/09 08:37:37;;;;;;;;;;;23.90;58.80;;;;;;5111917;28;19968;-58
2023/07/09 08:40:04;;;;;;;;;;;23.90;58.80;;;;;;5111544;28;20383;-57
2023/07/09 08:42:32;;;;;;;;;;;23.90;58.80;;;;;;5113388;28;19919;-58
2023/07/09 08:45:17;;;;;;;;;;;23.90;58.80;;;;;;5112810;28;20119;-59
2023/07/09 08:47:48;;;;;;;;;;;23.90;58.80;;;;;;5111716;28;19924;-58
2023/07/09 08:50:15;;;;;;;;;;;23.90;58.80;;;;;;5111456;28;19990;-58
2023/07/09 08:52:42;;;;;;;;;;;23.90;58.80;;;;;;5112725;28;19942;-58
2023/07/09 08:55:10;;;;;;;;;;;23.90;58.80;;;;;;5112899;28;19920;-58
2023/07/09 08:57:39;;;;;;;;;;;23.90;58.80;;;;;;5146137;27;19959;-58
2023/07/09 09:00:12;;;;;;;;;;;23.90;58.80;;;;;;5110646;28;20018;-61
2023/07/09 09:02:41;;;;;;;;;;;23.90;58.80;;;;;;5111503;28;19926;-58
2023/07/09 09:05:08;;;;;;;;;;;23.90;58.80;;;;;;5146051;27;20260;-58
2023/07/09 09:07:41;;;;;;;;;;;24.00;58.80;;;;;;5111643;28;19927;-58
2023/07/09 09:10:11;;;;;;;;;;;23.90;58.70;;;;;;5112846;28;19978;-59
2023/07/09 09:12:39;;;;;;;;;;;24.00;58.80;;;;;;5115687;28;19923;-58
2023/07/09 09:15:10;;;;;;;;;;;23.90;58.80;;;;;;5115726;28;20250;-57
2023/07/09 09:17:37;;;;;;;;;;;24.00;58.80;;;;;;5116828;28;20012;-58
2023/07/09 09:20:06;;;;;;;;;;;24.00;58.80;;;;;;5116568;28;19926;-58
2023/07/09 09:22:37;;;;;;;;;;;24.00;58.80;;;;;;5115287;28;19934;-58
2023/07/09 09:25:21;;;;;;;;;;;24.00;58.70;;;;;;5115404;28;19920;-58
2023/07/09 09:27:47;;;;;;;;;;;24.00;58.70;;;;;;5116430;28;19927;-58
2023/07/09 09:30:14;;;;;;;;;;;24.00;58.70;;;;;;5116497;28;20276;-58
2023/07/09 09:32:44;;;;;;;;;;;24.00;58.70;;;;;;5115386;28;19923;-58
2023/07/09 09:35:12;;;;;;;;;;;24.00;58.70;;;;;;5115346;28;19920;-61
2023/07/09 09:37:38;;;;;;;;;;;24.10;58.70;;;;;;5149711;27;20272;-58
2023/07/09 09:40:04;;;;;;;;;;;24.10;58.70;;;;;;5115255;28;19927;-58
2023/07/09 09:42:30;;;;;;;;;;;24.10;58.60;;;;;;5115225;28;19920;-58
2023/07/09 09:44:55;;;;;;;;;;;24.10;58.60;;;;;;5116382;28;19967;-61
2023/07/09 09:47:22;;;;;;;;;;;24.10;58.60;;;;;;5114876;28;19923;-58
2023/07/09 09:49:48;;;;;;;;;;;24.10;58.60;;;;;;5115921;28;19931;-58
2023/07/09 09:52:15;;;;;;;;;;;24.10;58.60;;;;;;5114847;28;19920;-58
2023/07/09 09:54:44;;;;;;;;;;;24.10;58.60;;;;;;5114695;28;19927;-58
2023/07/09 09:57:17;;;;;;;;;;;24.10;58.60;;;;;;5115022;28;19942;-58
2023/07/09 09:59:44;;;;;;;;;;;24.10;58.60;;;;;;5114627;28;19955;-58
2023/07/09 10:02:15;;;;;;;;;;;24.10;58.60;;;;;;5114810;28;19985;-58
2023/07/09 10:04:40;;;;;;;;;;;24.10;58.60;;;;;;5115822;27;19927;-58
2023/07/09 10:07:07;;;;;;;;;;;24.10;58.60;;;;;;5114640;28;19920;-58
2023/07/09 10:09:53;;;;;;;;;;;24.20;58.60;;;;;;5114325;28;19972;-59
2023/07/09 10:12:38;;;;;;;;;;;24.20;58.60;;;;;;5114565;28;19920;-58
2023/07/09 10:15:24;;;;;;;;;;;24.20;58.60;;;;;;5115516;28;19920;-58
2023/07/09 10:17:55;;;;;;;;;;;24.20;58.60;;;;;;5114423;28;20363;-58
2023/07/09 10:20:26;;;;;;;;;;;24.20;58.60;;;;;;5114074;28;19920;-61
2023/07/09 10:22:56;;;;;;;;;;;24.20;58.60;;;;;;5114176;28;19924;-58
2023/07/09 10:25:34;;;;;;;;;;;24.20;58.60;;;;;;5115476;27;20014;-58
2023/07/09 10:28:06;;;;;;;;;;;24.20;58.60;;;;;;5114069;28;19966;-58
2023/07/09 10:30:43;;;;;;;;;;;24.20;58.60;;;;;;5114081;28;19930;-58
2023/07/09 10:33:10;;;;;;;;;;;24.20;58.60;;;;;;5115289;28;20290;-61
2023/07/09 10:35:42;;;;;;;;;;;24.20;58.60;;;;;;5113944;28;19920;-58
2023/07/09 10:38:16;;;;;;;;;;;24.20;58.60;;;;;;5114117;28;19927;-59
2023/07/09 10:40:49;;;;;;;;;;;24.30;58.70;;;;;;5115114;28;19924;-59
2023/07/09 10:43:17;;;;;;;;;;;24.20;58.60;;;;;;5113990;28;20321;-58
2023/07/09 10:45:46;;;;;;;;;;;24.30;58.70;;;;;;5113001;28;19926;-59
2023/07/09 10:48:16;;;;;;;;;;;24.30;58.70;;;;;;5113263;28;19969;-58
2023/07/09 10:50:44;;;;;;;;;;;24.30;58.70;;;;;;5113596;28;19924;-58
2023/07/09 10:53:15;;;;;;;;;;;24.30;58.80;;;;;;5114643;28;19946;-61
2023/07/09 10:55:49;;;;;;;;;;;24.30;58.70;;;;;;5114823;28;20426;-58
2023/07/09 11:01:13;;;;;;;;;;;24.30;58.80;;;;;;5110379;27;19912;-58
2023/07/09 11:03:56;;;;;;;;;;;24.30;58.70;;;;;;5108879;28;20141;-58
2023/07/09 11:06:31;;;;;;;;;;;24.30;58.70;;;;;;5109206;28;20007;-59
2023/07/09 11:08:57;;;;;;;;;;;24.30;58.80;;;;;;5108805;28;19977;-58
2023/07/09 11:11:28;;;;;;;;;;;24.30;58.80;;;;;;5108796;28;19973;-59
2023/07/09 11:13:57;;;;;;;;;;;24.30;58.80;;;;;;5108989;28;19920;-58
2023/07/09 11:16:32;;;;;;;;;;;24.30;58.80;;;;;;5108952;28;20375;-59
2023/07/09 11:19:00;;;;;;;;;;;24.30;58.80;;;;;;5108578;28;20379;-58
2023/07/09 11:21:26;;;;;;;;;;;24.30;58.80;;;;;;5108837;28;19971;-58
2023/07/09 11:23:53;;;;;;;;;;;24.30;58.80;;;;;;5108871;28;19978;-61
2023/07/09 11:26:27;;;;;;;;;;;24.30;58.80;;;;;;5108844;28;20041;-58
2023/07/09 11:28:54;;;;;;;;;;;24.30;58.80;;;;;;5109625;28;19923;-58
2023/07/09 11:31:21;;;;;;;;;;;24.30;58.80;;;;;;5108479;28;20003;-58
2023/07/09 11:33:48;;;;;;;;;;;24.30;58.80;;;;;;5108362;28;19927;-61
2023/07/09 11:36:23;;;;;;;;;;;24.40;58.90;;;;;;5108632;28;20282;-58
2023/07/09 11:38:48;;;;;;;;;;;24.30;58.80;;;;;;5108247;28;19920;-58
2023/07/09 11:41:34;;;;;;;;;;;24.40;58.80;;;;;;5108487;28;19927;-58
2023/07/09 11:44:03;;;;;;;;;;;24.30;58.80;;;;;;5108393;28;19920;-61
2023/07/09 11:46:29;;;;;;;;;;;24.40;58.80;;;;;;5109347;28;20382;-58
2023/07/09 11:48:57;;;;;;;;;;;24.40;58.80;;;;;;5108122;28;19922;-58
2023/07/09 11:51:31;;;;;;;;;;;24.40;58.80;;;;;;5108002;28;19973;-58
2023/07/09 11:53:57;;;;;;;;;;;24.40;58.80;;;;;;5108290;28;19920;-59
2023/07/09 11:56:25;;;;;;;;;;;24.40;58.80;;;;;;5107914;28;20374;-58
2023/07/09 11:58:51;;;;;;;;;;;24.40;58.80;;;;;;5109099;28;19920;-58
2023/07/09 12:01:20;;;;;;;;;;;24.40;58.80;;;;;;5111252;28;19919;-58
2023/07/09 12:03:47;;;;;;;;;;;24.50;58.90;;;;;;5145609;27;19920;-58
2023/07/09 12:06:28;;;;;;;;;;;24.50;58.90;;;;;;5111461;28;20635;-58
2023/07/09 12:08:54;;;;;;;;;;;24.50;58.90;;;;;;5111577;28;19919;-58
2023/07/09 12:14:01;;;;;;;;;;;24.50;58.80;;;;;;5110203;27;19918;-61
2023/07/09 12:16:28;;;;;;;;;;;24.50;58.80;;;;;;5108779;28;20385;-58
2023/07/09 12:18:54;;;;;;;;;;;24.50;58.80;;;;;;5109229;28;19981;-58
2023/07/09 12:21:20;;;;;;;;;;;24.50;58.80;;;;;;5108789;28;19920;-59
2023/07/09 12:23:45;;;;;;;;;;;24.50;58.80;;;;;;5109187;28;20293;-61
2023/07/09 12:26:13;;;;;;;;;;;24.50;58.80;;;;;;5108714;28;19931;-61
2023/07/09 12:28:38;;;;;;;;;;;24.50;58.80;;;;;;5110321;28;19927;-58
2023/07/09 12:31:04;;;;;;;;;;;24.50;58.80;;;;;;5110047;28;19920;-58
2023/07/09 12:33:29;;;;;;;;;;;24.60;58.80;;;;;;5108609;28;20401;-59
2023/07/09 12:35:58;;;;;;;;;;;24.60;58.90;;;;;;5108491;28;19920;-61
2023/07/09 12:38:24;;;;;;;;;;;24.60;58.90;;;;;;5109724;28;20363;-58
2023/07/09 12:40:51;;;;;;;;;;;24.60;59.60;;;;;;5108888;28;19973;-61
2023/07/09 12:43:22;;;;;;;;;;;24.60;58.90;;;;;;5108383;28;19920;-58
2023/07/09 12:45:48;;;;;;;;;;;24.60;58.80;;;;;;5108728;28;20007;-58
2023/07/09 12:48:13;;;;;;;;;;;24.60;58.80;;;;;;5108278;28;20002;-58
2023/07/09 12:50:39;;;;;;;;;;;24.60;58.80;;;;;;5108575;28;20017;-59
2023/07/09 12:53:21;;;;;;;;;;;24.60;58.80;;;;;;5108126;28;19924;-58
2023/07/09 12:55:48;;;;;;;;;;;24.60;58.80;;;;;;5108305;28;20096;-58
2023/07/09 12:58:19;;;;;;;;;;;24.70;58.90;;;;;;5108429;28;19963;-58
2023/07/09 13:00:51;;;;;;;;;;;24.60;58.80;;;;;;5108086;28;20015;-58
2023/07/09 13:03:18;;;;;;;;;;;24.70;58.90;;;;;;5108362;28;19920;-61
2023/07/09 13:06:00;;;;;;;;;;;24.70;58.90;;;;;;5108393;28;19920;-59
2023/07/09 13:08:27;;;;;;;;;;;24.70;58.90;;;;;;5109331;28;19920;-58
2023/07/09 13:10:54;;;;;;;;;;;24.70;58.90;;;;;;5109211;28;19924;-58
2023/07/09 13:13:21;;;;;;;;;;;24.70;58.90;;;;;;5107576;28;19928;-58
2023/07/09 13:15:49;;;;;;;;;;;24.70;58.90;;;;;;5108135;28;19947;-61
2023/07/09 13:18:15;;;;;;;;;;;24.70;58.90;;;;;;5107719;28;20371;-58
2023/07/09 13:20:42;;;;;;;;;;;24.70;58.90;;;;;;5109216;28;19928;-58
2023/07/09 13:23:09;;;;;;;;;;;24.70;58.90;;;;;;5107120;28;19920;-58
2023/07/09 13:25:35;;;;;;;;;;;24.70;58.90;;;;;;5093706;28;19920;-58
2023/07/09 13:28:01;;;;;;;;;;;24.80;58.90;;;;;;5094094;28;19920;-58
2023/07/09 13:30:26;;;;;;;;;;;24.80;58.90;;;;;;5128174;27;20337;-58
2023/07/09 13:32:51;;;;;;;;;;;24.80;58.90;;;;;;5094996;28;19928;-59
2023/07/09 13:35:18;;;;;;;;;;;24.80;58.90;;;;;;5093962;28;20053;-58
2023/07/09 13:37:44;;;;;;;;;;;24.80;58.90;;;;;;5094136;28;20010;-58
2023/07/09 13:40:11;;;;;;;;;;;24.80;58.90;;;;;;5094127;28;19920;-58
2023/07/09 13:42:36;;;;;;;;;;;24.80;58.90;;;;;;5095162;28;19998;-58
2023/07/09 13:45:02;;;;;;;;;;;24.80;58.90;;;;;;5093683;28;20537;-58
2023/07/09 13:47:28;;;;;;;;;;;24.80;58.90;;;;;;5093943;28;19924;-58
2023/07/09 13:49:53;;;;;;;;;;;24.80;58.90;;;;;;5093554;28;19920;-58
2023/07/09 13:52:20;;;;;;;;;;;24.90;59.00;;;;;;5094759;28;19924;-61
2023/07/09 13:54:47;;;;;;;;;;;24.90;59.00;;;;;;5093548;28;19927;-59
2023/07/09 13:57:15;;;;;;;;;;;24.90;59.00;;;;;;5093836;28;20360;-58
2023/07/09 13:59:41;;;;;;;;;;;24.90;58.90;;;;;;5093420;28;19924;-58
2023/07/09 14:02:31;;;;;;;;;;;24.90;58.90;;;;;;5093393;28;19927;-58
2023/07/09 14:04:57;;;;;;;;;;;24.90;58.90;;;;;;5094498;28;19920;-58
2023/07/09 14:07:26;;;;;;;;;;;24.90;58.90;;;;;;5094611;28;20406;-58
2023/07/09 14:09:51;;;;;;;;;;;24.90;59.00;;;;;;5093501;28;19924;-58
2023/07/09 14:12:17;;;;;;;;;;;24.90;58.90;;;;;;5100464;28;19953;-58
2023/07/09 14:14:44;;;;;;;;;;;24.90;58.90;;;;;;5096464;28;19927;-58
2023/07/09 14:17:11;;;;;;;;;;;24.90;59.00;;;;;;5096820;28;20275;-58
2023/07/09 14:19:37;;;;;;;;;;;24.90;58.90;;;;;;5096692;28;20328;-58
2023/07/09 14:22:02;;;;;;;;;;;24.90;58.90;;;;;;5096384;28;19920;-58
2023/07/09 14:24:29;;;;;;;;;;;24.90;58.90;;;;;;5096341;28;19923;-58